Terminal Aerodrome Forecast
Issued by NWS

Home | Current Version | Previous Version | Text Only | Print | Product List | Glossary On
Versions: 1 2 3 4 5 6 7 8 9 10 11 12 13 14
000
FTUS45 KPIH 051100
TAFSUN
TAF
KSUN 051120Z 0512/0612 32008KT P6SM FEW200
     FM051800 14008KT P6SM FEW200
     FM060400 31008KT P6SM FEW200
      AMD LTD TO CLD VIS AND WIND TIL 051400=

USA.gov is the U.S. government's official web portal to all federal, state and local government web resources and services.